Time;durP1;ratioP1;P1;durP2;ratioP2;P2;SDS_P1;SDS_P2;PMS_P1;PMS_P2;Temp;Humidity;BMP_temperature;BMP_pressure;BME280_temperature;BME280_humidity;BME280_pressure;Samples;Min_cycle;Max_cycle;Signal;HPM_P1;HPM_P2
2023/08/26 00:01:54;;;;;;;6.78;5.53;;;18.70;77.30;;;;;;4924862;29;20463;-74
2023/08/26 00:04:21;;;;;;;5.85;4.65;;;18.70;77.20;;;;;;4903685;29;20052;-74
2023/08/26 00:06:47;;;;;;;5.35;3.90;;;18.70;77.20;;;;;;4935067;29;20112;-74
2023/08/26 00:09:13;;;;;;;6.15;4.03;;;18.70;77.10;;;;;;4934371;29;20043;-74
2023/08/26 00:11:40;;;;;;;4.13;3.72;;;18.70;77.10;;;;;;4934975;29;20411;-74
2023/08/26 00:14:06;;;;;;;4.88;4.18;;;18.60;77.10;;;;;;4921781;29;20048;-74
2023/08/26 00:16:32;;;;;;;6.88;4.13;;;18.60;77.00;;;;;;4916067;29;20046;-74
2023/08/26 00:19:01;;;;;;;5.55;3.63;;;18.60;77.00;;;;;;4926494;29;20443;-74
2023/08/26 00:21:27;;;;;;;5.15;3.70;;;18.50;76.90;;;;;;4934902;29;20040;-74
2023/08/26 00:23:53;;;;;;;5.82;3.85;;;18.50;77.00;;;;;;4934409;29;20535;-74
2023/08/26 00:26:19;;;;;;;6.75;4.00;;;18.50;77.00;;;;;;4901279;29;20044;-74
2023/08/26 00:28:45;;;;;;;5.03;3.38;;;18.50;77.00;;;;;;4908186;29;20054;-74
2023/08/26 00:31:11;;;;;;;5.22;3.58;;;18.50;77.10;;;;;;4934606;29;20078;-74
2023/08/26 00:33:37;;;;;;;4.15;3.15;;;18.50;77.10;;;;;;4934546;29;20097;-74
2023/08/26 00:36:03;;;;;;;5.20;3.05;;;18.40;77.10;;;;;;4934303;29;20043;-74
2023/08/26 00:38:29;;;;;;;5.05;3.75;;;18.40;77.10;;;;;;4933266;29;20039;-74
2023/08/26 00:40:55;;;;;;;4.65;3.50;;;18.40;77.20;;;;;;4924098;29;20045;-74
2023/08/26 00:43:21;;;;;;;4.22;3.50;;;18.40;77.30;;;;;;4915743;29;20556;-74
2023/08/26 00:45:49;;;;;;;4.72;3.95;;;18.30;77.30;;;;;;4900721;29;20432;-74
2023/08/26 00:48:15;;;;;;;3.85;2.90;;;18.40;77.80;;;;;;4919782;29;20087;-74
2023/08/26 00:50:47;;;;;;;4.72;3.40;;;18.30;77.40;;;;;;4933995;29;20055;-74
2023/08/26 00:53:15;;;;;;;4.07;3.25;;;18.30;77.40;;;;;;4934519;29;20048;-74
2023/08/26 00:55:42;;;;;;;3.97;2.97;;;18.30;77.40;;;;;;4934071;29;20514;-74
2023/08/26 00:58:08;;;;;;;4.93;3.10;;;18.30;77.50;;;;;;4933271;29;20047;-74
2023/08/26 01:00:39;;;;;;;4.85;3.45;;;18.30;77.50;;;;;;4934318;29;20520;-74
2023/08/26 01:03:05;;;;;;;3.75;2.60;;;18.30;77.50;;;;;;4932731;29;20059;-74
2023/08/26 01:05:31;;;;;;;4.38;3.15;;;18.30;77.50;;;;;;4915325;29;20079;-74
2023/08/26 01:07:58;;;;;;;3.95;2.75;;;18.20;77.50;;;;;;4917132;29;20075;-74
2023/08/26 01:10:50;;;;;;;4.45;3.08;;;18.20;77.50;;;;;;4933884;29;20040;-74
2023/08/26 01:13:18;;;;;;;3.47;3.05;;;18.20;77.50;;;;;;4932766;29;20132;-74
2023/08/26 01:15:50;;;;;;;3.90;2.50;;;18.20;77.50;;;;;;4922574;29;20453;-74
2023/08/26 01:18:16;;;;;;;4.63;3.03;;;18.20;77.50;;;;;;4919567;29;20058;-74
2023/08/26 01:20:43;;;;;;;4.43;3.20;;;18.20;77.50;;;;;;4922160;29;20118;-74
2023/08/26 01:23:17;;;;;;;4.50;2.28;;;18.20;77.50;;;;;;4933747;29;20075;-74
2023/08/26 01:25:42;;;;;;;;;;;18.20;77.50;;;;;;4934516;29;20039;-74
2023/08/26 01:28:08;;;;;;;3.22;2.50;;;18.10;77.20;;;;;;4931021;29;19919;-74
2023/08/26 01:30:35;;;;;;;4.30;2.78;;;18.10;77.50;;;;;;4915428;29;20473;-74
2023/08/26 01:33:18;;;;;;;4.95;3.20;;;18.10;77.50;;;;;;4899279;29;20040;-74
2023/08/26 01:35:47;;;;;;;5.05;3.55;;;18.10;77.40;;;;;;4915861;29;20055;-74
2023/08/26 01:38:16;;;;;;;5.32;3.20;;;18.00;77.30;;;;;;4930427;29;20071;-74
2023/08/26 01:40:53;;;;;;;4.20;3.67;;;18.00;77.30;;;;;;4916270;29;20044;-74
2023/08/26 01:43:20;;;;;;;4.55;3.58;;;18.00;77.20;;;;;;4900207;29;20099;-74
2023/08/26 01:45:46;;;;;;;5.85;4.25;;;18.00;77.10;;;;;;4915184;29;20095;-74
2023/08/26 01:48:11;;;;;;;4.18;3.30;;;18.00;77.00;;;;;;4905198;29;20423;-74
2023/08/26 01:50:37;;;;;;;4.30;3.08;;;17.90;77.00;;;;;;4931943;29;20054;-74
2023/08/26 01:53:03;;;;;;;4.68;3.72;;;17.90;77.10;;;;;;4915318;29;20508;-74
2023/08/26 01:55:29;;;;;;;4.53;2.83;;;17.90;77.20;;;;;;4908142;29;20036;-74
2023/08/26 01:57:54;;;;;;;3.97;2.72;;;17.90;77.30;;;;;;4915155;29;20180;-74
2023/08/26 02:00:20;;;;;;;5.40;2.72;;;17.90;77.30;;;;;;4918098;29;20039;-74
2023/08/26 02:02:46;;;;;;;4.10;3.10;;;17.90;77.40;;;;;;4933891;29;20573;-74
2023/08/26 02:05:11;;;;;;;5.93;4.10;;;17.90;77.40;;;;;;4920958;29;20566;-74
2023/08/26 02:07:37;;;;;;;4.55;3.55;;;17.80;77.40;;;;;;4936389;29;20126;-74
2023/08/26 02:10:03;;;;;;;5.03;3.53;;;17.80;77.20;;;;;;4909899;29;20424;-74
2023/08/26 02:12:29;;;;;;;5.40;3.08;;;17.80;77.20;;;;;;4902485;29;20107;-74
2023/08/26 02:14:54;;;;;;;5.18;3.22;;;17.80;77.10;;;;;;4902860;29;20111;-74
2023/08/26 02:17:20;;;;;;;6.47;4.03;;;17.80;77.10;;;;;;4917909;29;20060;-74
2023/08/26 02:19:46;;;;;;;4.70;3.25;;;17.80;77.00;;;;;;4902630;29;20040;-74
2023/08/26 02:22:12;;;;;;;5.38;3.28;;;17.80;76.90;;;;;;4902480;29;20453;-74
2023/08/26 02:24:37;;;;;;;5.45;3.65;;;17.70;76.90;;;;;;4933086;29;20036;-74
2023/08/26 02:27:03;;;;;;;5.78;3.65;;;17.70;76.90;;;;;;4920876;29;20046;-74
2023/08/26 02:29:30;;;;;;;4.45;3.25;;;17.70;76.90;;;;;;4933526;29;20051;-75
2023/08/26 02:31:56;;;;;;;3.97;2.85;;;17.70;76.80;;;;;;4917867;29;20416;-75
2023/08/26 02:34:22;;;;;;;3.88;3.17;;;17.60;76.80;;;;;;4917724;29;20054;-75
2023/08/26 02:36:47;;;;;;;4.85;3.38;;;17.70;76.80;;;;;;4901860;29;20044;-75
2023/08/26 02:39:13;;;;;;;4.88;3.35;;;17.60;76.80;;;;;;4927367;29;20048;-75
2023/08/26 02:41:39;;;;;;;4.32;2.78;;;17.60;76.70;;;;;;4902193;29;20480;-75
2023/08/26 02:44:04;;;;;;;4.85;2.97;;;17.60;76.80;;;;;;4917523;29;20046;-75
2023/08/26 02:46:30;;;;;;;6.80;3.55;;;17.60;76.80;;;;;;4917777;29;20048;-74
2023/08/26 02:48:56;;;;;;;3.08;2.40;;;17.60;76.80;;;;;;4928168;29;20043;-75
2023/08/26 02:51:22;;;;;;;4.35;3.20;;;17.50;76.70;;;;;;4936782;29;20461;-75
2023/08/26 02:53:47;;;;;;;6.20;3.50;;;17.50;76.80;;;;;;4920527;29;20078;-75
2023/08/26 02:56:13;;;;;;;5.88;3.17;;;17.50;76.80;;;;;;4928692;29;20120;-75
2023/08/26 02:58:39;;;;;;;3.22;2.70;;;17.50;76.80;;;;;;4925526;29;20492;-75
2023/08/26 03:01:06;;;;;;;3.75;2.53;;;17.50;76.80;;;;;;4936180;29;20040;-75
2023/08/26 03:03:32;;;;;;;6.18;3.17;;;17.40;76.80;;;;;;4923384;29;20039;-75
2023/08/26 03:05:58;;;;;;;4.50;2.70;;;17.40;76.90;;;;;;4939126;29;20065;-75
2023/08/26 03:08:24;;;;;;;4.75;2.67;;;17.40;77.00;;;;;;4920371;29;20039;-75
2023/08/26 03:11:03;;;;;;;4.60;2.70;;;17.40;77.00;;;;;;4926876;29;20131;-75
2023/08/26 03:13:29;;;;;;;4.28;3.22;;;17.40;77.00;;;;;;4919938;29;20127;-75
2023/08/26 03:15:55;;;;;;;4.93;2.42;;;17.40;77.10;;;;;;4920193;29;20043;-75
2023/08/26 03:18:21;;;;;;;4.78;2.85;;;17.30;77.00;;;;;;4929778;29;20046;-75
2023/08/26 03:20:47;;;;;;;3.45;2.58;;;17.30;77.00;;;;;;4939057;29;20039;-75
2023/08/26 03:23:12;;;;;;;5.45;3.15;;;17.30;77.00;;;;;;4939192;29;20479;-75
2023/08/26 03:25:40;;;;;;;3.10;2.40;;;17.30;76.90;;;;;;4922310;29;20050;-75
2023/08/26 03:28:08;;;;;;;4.25;2.40;;;17.30;76.90;;;;;;4936947;29;20049;-75
2023/08/26 03:30:37;;;;;;;3.38;2.72;;;17.20;76.90;;;;;;4938941;29;20043;-75
2023/08/26 03:33:03;;;;;;;3.45;2.50;;;17.20;76.90;;;;;;4907566;29;20055;-75
2023/08/26 03:35:29;;;;;;;4.13;2.60;;;17.20;77.10;;;;;;4928061;29;20481;-75
2023/08/26 03:37:55;;;;;;;3.53;2.55;;;17.20;77.10;;;;;;4908872;29;20035;-75
2023/08/26 03:40:23;;;;;;;4.18;2.50;;;17.20;77.10;;;;;;4922436;29;20043;-75
2023/08/26 03:42:52;;;;;;;3.65;2.58;;;17.20;77.10;;;;;;4923363;28;20168;-75
2023/08/26 03:45:18;;;;;;;3.88;2.78;;;17.20;77.20;;;;;;4922633;29;20106;-75
2023/08/26 03:47:44;;;;;;;5.20;2.92;;;17.10;77.10;;;;;;4934550;29;20051;-75
2023/08/26 03:50:10;;;;;;;3.85;2.30;;;17.10;77.00;;;;;;4919716;29;20044;-75
2023/08/26 03:52:36;;;;;;;2.88;2.33;;;17.10;77.00;;;;;;4898218;29;20039;-75
2023/08/26 03:55:04;;;;;;;5.78;2.83;;;17.10;76.90;;;;;;4903596;29;20047;-75
2023/08/26 03:57:30;;;;;;;3.78;2.55;;;17.10;77.00;;;;;;4904329;29;20486;-75
2023/08/26 03:59:56;;;;;;;3.75;3.13;;;17.00;76.90;;;;;;4930754;29;20067;-75
2023/08/26 04:02:21;;;;;;;4.47;2.90;;;17.00;76.90;;;;;;4939688;29;20060;-75
2023/08/26 04:04:47;;;;;;;3.92;2.95;;;17.00;76.80;;;;;;4904936;29;20044;-75
2023/08/26 04:07:13;;;;;;;4.90;2.95;;;17.00;76.60;;;;;;4919152;29;20055;-75
2023/08/26 04:09:38;;;;;;;3.40;2.53;;;17.00;76.50;;;;;;4919767;29;20071;-75
2023/08/26 04:12:04;;;;;;;4.28;3.47;;;16.90;76.50;;;;;;4903728;29;20433;-75
2023/08/26 04:14:30;;;;;;;4.22;2.80;;;16.90;76.50;;;;;;4903733;29;20043;-75
2023/08/26 04:16:56;;;;;;;3.65;2.38;;;16.90;76.70;;;;;;4888512;29;20548;-75
2023/08/26 04:19:21;;;;;;;3.70;2.70;;;16.90;76.90;;;;;;4934321;29;20043;-75
2023/08/26 04:21:47;;;;;;;4.85;2.83;;;16.90;77.20;;;;;;4938121;29;20036;-75
2023/08/26 04:24:13;;;;;;;3.65;2.83;;;16.90;77.40;;;;;;4937797;29;20039;-75
2023/08/26 04:26:38;;;;;;;4.40;3.00;;;16.90;77.60;;;;;;4937532;29;20043;-75
2023/08/26 04:29:04;;;;;;;3.92;3.13;;;16.90;77.70;;;;;;4924101;29;20511;-75
2023/08/26 04:31:30;;;;;;;6.55;3.90;;;16.80;77.70;;;;;;4918720;29;20054;-75
2023/08/26 04:33:56;;;;;;;4.22;2.90;;;16.90;77.90;;;;;;4904550;29;20048;-75
2023/08/26 04:36:21;;;;;;;4.30;3.28;;;16.90;78.00;;;;;;4918901;29;20381;-75
2023/08/26 04:38:47;;;;;;;4.53;3.35;;;16.90;78.00;;;;;;4929240;29;20414;-75
2023/08/26 04:41:14;;;;;;;6.60;4.20;;;16.90;78.00;;;;;;4937802;29;20043;-75
2023/08/26 04:43:40;;;;;;;4.07;3.53;;;16.90;78.00;;;;;;4937337;29;20043;-75
2023/08/26 04:46:06;;;;;;;7.97;5.60;;;16.90;78.10;;;;;;4937618;29;20047;-75
2023/08/26 04:48:33;;;;;;;6.88;4.60;;;16.90;78.10;;;;;;4936761;29;20114;-75
2023/08/26 04:50:59;;;;;;;5.15;4.05;;;16.80;78.20;;;;;;4912612;29;20046;-75
2023/08/26 04:53:25;;;;;;;7.63;5.25;;;16.90;78.30;;;;;;4918827;29;20039;-75
2023/08/26 04:55:51;;;;;;;5.57;3.90;;;16.90;78.50;;;;;;4921408;29;20082;-75
2023/08/26 04:58:18;;;;;;;5.60;4.25;;;16.90;78.60;;;;;;4936556;29;20057;-75
2023/08/26 05:00:45;;;;;;;6.32;4.75;;;16.90;78.70;;;;;;4933062;29;20071;-75
2023/08/26 05:03:11;;;;;;;7.93;6.25;;;16.90;78.80;;;;;;4903407;29;20444;-75
2023/08/26 05:05:41;;;;;;;8.02;5.18;;;16.90;78.80;;;;;;4934508;29;20142;-75
2023/08/26 05:08:08;;;;;;;6.00;4.88;;;16.90;78.80;;;;;;4903109;29;20384;-75
2023/08/26 05:10:36;;;;;;;7.07;5.13;;;16.90;78.90;;;;;;4933115;28;20043;-75
2023/08/26 05:13:02;;;;;;;5.95;4.75;;;16.90;78.90;;;;;;4937498;29;20138;-75
2023/08/26 05:15:29;;;;;;;7.20;5.40;;;17.00;78.90;;;;;;4903731;29;20055;-75
2023/08/26 05:17:55;;;;;;;5.80;5.00;;;17.00;78.90;;;;;;4921909;29;20039;-75
2023/08/26 05:20:21;;;;;;;8.05;4.50;;;16.90;78.90;;;;;;4953650;28;20043;-75
2023/08/26 05:22:46;;;;;;;7.35;5.07;;;17.00;78.90;;;;;;4937536;28;20505;-75
2023/08/26 05:25:12;;;;;;;5.18;4.53;;;17.00;79.00;;;;;;4933729;29;20038;-75
2023/08/26 05:27:38;;;;;;;6.75;5.32;;;17.00;79.00;;;;;;4935186;29;20479;-75
2023/08/26 05:30:04;;;;;;;10.13;5.70;;;17.00;78.90;;;;;;4909422;29;20050;-75
2023/08/26 05:32:30;;;;;;;6.82;5.10;;;17.00;78.90;;;;;;4907175;29;20440;-75
2023/08/26 05:34:56;;;;;;;5.63;4.82;;;17.10;79.00;;;;;;4918595;29;20131;-75
2023/08/26 05:37:22;;;;;;;5.75;4.90;;;17.10;79.00;;;;;;4919419;29;20055;-75
2023/08/26 05:39:47;;;;;;;10.60;5.03;;;17.10;79.00;;;;;;4906543;29;20054;-76
2023/08/26 05:42:13;;;;;;;6.85;4.85;;;17.10;79.00;;;;;;4890609;29;20398;-76
2023/08/26 05:44:39;;;;;;;8.35;5.72;;;17.10;79.00;;;;;;4930267;29;20043;-76
2023/08/26 05:47:05;;;;;;;7.38;6.25;;;17.10;79.00;;;;;;4914925;29;20126;-76
2023/08/26 05:49:31;;;;;;;8.45;6.05;;;17.10;79.10;;;;;;4920952;29;20122;-76
2023/08/26 05:51:57;;;;;;;10.27;7.63;;;17.20;79.20;;;;;;4940964;29;20035;-76
2023/08/26 05:54:22;;;;;;;9.45;7.90;;;17.20;79.30;;;;;;4925104;29;20130;-76
2023/08/26 05:56:48;;;;;;;7.85;5.68;;;17.20;79.30;;;;;;4924959;29;20043;-76
2023/08/26 05:59:14;;;;;;;11.35;6.82;;;17.20;79.50;;;;;;4927629;29;20043;-76
2023/08/26 06:01:39;;;;;;;7.70;6.85;;;17.20;79.60;;;;;;4890444;29;20052;-76
2023/08/26 06:04:06;;;;;;;11.93;7.40;;;17.20;79.70;;;;;;4915411;29;20047;-76
2023/08/26 06:06:33;;;;;;;10.10;7.82;;;17.20;79.80;;;;;;4925199;29;20047;-76
2023/08/26 06:08:58;;;;;;;11.75;7.85;;;17.20;79.90;;;;;;4939656;29;20514;-76
2023/08/26 06:11:24;;;;;;;10.63;8.32;;;17.20;80.00;;;;;;4892673;29;20043;-76
2023/08/26 06:13:50;;;;;;;11.32;7.13;;;17.20;80.00;;;;;;4923270;29;20031;-76
2023/08/26 06:16:20;;;;;;;11.00;8.50;;;17.20;79.90;;;;;;4916632;29;20411;-76
2023/08/26 06:18:47;;;;;;;12.50;9.48;;;17.20;79.90;;;;;;4940086;29;20043;-76
2023/08/26 06:21:12;;;;;;;11.43;8.48;;;17.20;79.80;;;;;;4940117;29;20118;-76
2023/08/26 06:23:38;;;;;;;11.57;8.00;;;17.20;79.80;;;;;;4924488;29;20488;-76
2023/08/26 06:26:04;;;;;;;10.68;7.25;;;17.20;79.80;;;;;;4939287;29;20050;-76
2023/08/26 06:28:30;;;;;;;14.48;11.45;;;17.20;79.80;;;;;;4940115;29;20067;-76
2023/08/26 06:31:00;;;;;;;11.18;9.75;;;17.30;80.10;;;;;;4924456;29;20043;-76
2023/08/26 06:33:26;;;;;;;15.45;10.65;;;17.30;80.20;;;;;;4940605;29;20046;-76
2023/08/26 06:35:52;;;;;;;14.23;10.60;;;17.30;80.20;;;;;;4939816;28;20047;-76
2023/08/26 06:38:18;;;;;;;12.25;9.38;;;17.30;80.20;;;;;;4921341;29;20070;-76
2023/08/26 06:40:52;;;;;;;13.57;9.45;;;17.30;80.20;;;;;;4947853;28;20106;-76
2023/08/26 06:43:17;;;;;;;14.48;11.20;;;17.30;80.20;;;;;;4939914;29;20510;-76
2023/08/26 06:45:43;;;;;;;14.07;9.93;;;17.30;80.00;;;;;;4939983;29;20047;-77
2023/08/26 06:48:09;;;;;;;11.23;9.07;;;17.40;80.00;;;;;;4939854;28;20137;-76
2023/08/26 06:50:34;;;;;;;12.23;9.07;;;17.40;79.80;;;;;;4939230;29;20043;-76
2023/08/26 06:53:00;;;;;;;16.20;9.95;;;17.40;79.50;;;;;;4923681;29;20177;-76
2023/08/26 06:55:26;;;;;;;11.50;8.90;;;17.40;79.30;;;;;;4923372;29;20055;-76
2023/08/26 06:57:53;;;;;;;9.65;7.88;;;17.40;79.30;;;;;;4920896;29;20087;-76
2023/08/26 07:00:18;;;;;;;14.27;10.30;;;17.40;79.30;;;;;;4920529;29;20043;-76
2023/08/26 07:02:44;;;;;;;14.65;8.45;;;17.50;79.30;;;;;;4920447;29;20052;-76
2023/08/26 07:05:10;;;;;;;13.68;10.73;;;17.50;79.20;;;;;;4920523;29;20480;-76
2023/08/26 07:07:36;;;;;;;14.80;9.05;;;17.50;79.50;;;;;;4921340;29;20050;-76
2023/08/26 07:10:03;;;;;;;12.43;8.65;;;17.50;79.50;;;;;;4926874;29;20047;-76
2023/08/26 07:12:30;;;;;;;12.70;10.05;;;17.60;79.70;;;;;;4919659;29;20126;-76
2023/08/26 07:14:56;;;;;;;13.77;10.43;;;17.70;79.80;;;;;;4939656;29;20101;-76
2023/08/26 07:17:21;;;;;;;12.88;10.30;;;17.80;79.50;;;;;;4923577;29;20550;-76
2023/08/26 07:19:47;;;;;;;14.23;11.13;;;17.80;79.00;;;;;;4934206;29;20039;-76
2023/08/26 07:22:13;;;;;;;14.88;9.70;;;17.90;78.70;;;;;;4898727;29;20127;-76
2023/08/26 07:24:38;;;;;;;10.25;8.68;;;18.00;78.60;;;;;;4920023;29;20550;-76
2023/08/26 07:27:04;;;;;;;11.38;8.18;;;18.10;78.50;;;;;;4908142;29;20039;-76
2023/08/26 07:29:34;;;;;;;11.50;9.25;;;18.20;78.20;;;;;;4938190;29;20070;-75
2023/08/26 07:32:00;;;;;;;11.07;9.98;;;18.30;78.10;;;;;;4938533;29;20035;-74
2023/08/26 07:34:25;;;;;;;13.52;9.00;;;18.40;77.40;;;;;;4954851;29;20541;-75
2023/08/26 07:36:52;;;;;;;11.75;9.80;;;18.40;76.60;;;;;;4938352;29;20054;-75
2023/08/26 07:39:18;;;;;;;12.63;10.57;;;18.50;76.30;;;;;;4936692;29;20494;-75
2023/08/26 07:41:44;;;;;;;14.57;10.55;;;18.50;76.10;;;;;;4937693;29;20499;-75
2023/08/26 07:44:10;;;;;;;13.88;10.23;;;18.60;76.00;;;;;;4963392;28;20050;-75
2023/08/26 07:46:35;;;;;;;12.65;9.95;;;18.60;75.90;;;;;;4938764;28;20043;-75
2023/08/26 07:49:01;;;;;;;13.10;9.82;;;18.70;75.60;;;;;;4936742;29;20562;-75
2023/08/26 07:51:27;;;;;;;11.98;9.18;;;18.70;75.50;;;;;;4926232;29;20073;-75
2023/08/26 07:53:52;;;;;;;11.77;9.55;;;18.70;75.20;;;;;;4925762;29;20039;-75
2023/08/26 07:56:18;;;;;;;10.93;9.75;;;18.70;74.90;;;;;;4902447;29;20169;-75
2023/08/26 07:58:44;;;;;;;12.02;9.50;;;18.80;74.80;;;;;;4926590;29;20426;-75
2023/08/26 08:01:10;;;;;;;11.90;9.65;;;18.80;74.50;;;;;;4931575;29;20058;-75
2023/08/26 08:03:36;;;;;;;12.93;9.18;;;18.80;74.20;;;;;;4926677;29;20388;-75
2023/08/26 08:06:01;;;;;;;11.30;9.27;;;18.80;74.40;;;;;;4930050;29;20047;-75
2023/08/26 08:08:27;;;;;;;13.95;10.10;;;18.90;74.60;;;;;;4925254;29;20383;-75
2023/08/26 08:10:53;;;;;;;11.00;9.13;;;19.00;74.40;;;;;;4915885;29;20505;-75
2023/08/26 08:13:19;;;;;;;12.20;9.32;;;19.00;73.80;;;;;;4926363;29;20050;-75
2023/08/26 08:15:44;;;;;;;11.38;8.85;;;19.10;73.50;;;;;;4925834;28;20435;-75
2023/08/26 08:18:10;;;;;;;10.10;7.55;;;19.30;73.70;;;;;;4940502;29;20043;-75
2023/08/26 08:20:35;;;;;;;9.43;8.00;;;19.40;73.60;;;;;;4925572;29;20035;-76
2023/08/26 08:23:03;;;;;;;13.30;9.27;;;19.60;73.60;;;;;;4907377;29;20052;-75
2023/08/26 08:25:29;;;;;;;12.73;8.20;;;19.80;73.50;;;;;;4943074;28;20050;-75
2023/08/26 08:27:55;;;;;;;10.98;8.15;;;19.90;72.70;;;;;;4913771;29;20050;-76
2023/08/26 08:30:21;;;;;;;10.18;7.97;;;20.10;72.00;;;;;;4941536;29;20039;-76
2023/08/26 08:32:47;;;;;;;12.27;8.85;;;20.30;71.70;;;;;;4926966;29;20094;-75
2023/08/26 08:35:12;;;;;;;8.70;6.20;;;20.40;71.20;;;;;;4924916;29;20043;-75
2023/08/26 08:37:38;;;;;;;11.13;7.63;;;20.50;70.30;;;;;;4909356;29;20134;-75
2023/08/26 08:40:05;;;;;;;7.80;6.40;;;20.60;69.80;;;;;;4908136;29;20039;-75
2023/08/26 08:42:34;;;;;;;8.75;6.75;;;20.80;69.00;;;;;;4923604;29;20043;-75
2023/08/26 08:45:03;;;;;;;8.60;6.30;;;20.80;68.80;;;;;;4943397;29;20538;-76
2023/08/26 08:47:30;;;;;;;11.70;6.78;;;20.90;68.50;;;;;;4925189;29;20395;-76
2023/08/26 08:49:57;;;;;;;7.63;5.72;;;21.00;68.30;;;;;;4925410;29;20122;-76
2023/08/26 08:52:25;;;;;;;10.07;5.78;;;21.00;68.00;;;;;;4926491;29;20047;-76
2023/08/26 08:54:51;;;;;;;11.68;6.38;;;21.00;68.00;;;;;;4922924;29;20043;-76
2023/08/26 08:57:21;;;;;;;10.23;5.78;;;21.10;67.70;;;;;;4937788;29;20043;-76
2023/08/26 08:59:47;;;;;;;14.57;8.93;;;21.10;67.50;;;;;;4925263;29;20476;-76
2023/08/26 09:02:15;;;;;;;11.93;6.40;;;21.10;67.50;;;;;;4941087;28;20058;-77
2023/08/26 09:04:42;;;;;;;8.52;5.03;;;21.20;67.40;;;;;;4923721;29;20129;-76
2023/08/26 09:07:09;;;;;;;7.55;4.70;;;21.20;67.40;;;;;;4923183;29;20054;-76
2023/08/26 09:09:35;;;;;;;9.13;5.18;;;21.20;67.50;;;;;;4923351;29;20081;-77
2023/08/26 09:12:01;;;;;;;10.90;5.25;;;21.20;67.70;;;;;;4942288;28;20083;-76
2023/08/26 09:14:27;;;;;;;8.43;4.53;;;21.20;67.40;;;;;;4914000;29;20055;-75
2023/08/26 09:16:54;;;;;;;7.78;3.67;;;21.20;67.10;;;;;;4945755;29;20091;-76
2023/08/26 09:19:19;;;;;;;6.22;3.85;;;21.20;66.90;;;;;;4944819;29;20139;-76
2023/08/26 09:21:46;;;;;;;8.73;3.70;;;21.30;66.30;;;;;;4913995;29;20114;-76
2023/08/26 09:24:13;;;;;;;8.95;3.80;;;21.30;66.10;;;;;;4928446;29;20082;-76
2023/08/26 09:26:40;;;;;;;8.18;3.53;;;21.40;66.00;;;;;;4929554;29;20115;-76
2023/08/26 09:29:18;;;;;;;10.30;3.20;;;21.40;65.40;;;;;;4927640;29;20122;-76
2023/08/26 09:31:52;;;;;;;6.95;3.15;;;21.60;65.20;;;;;;4929507;28;20070;-75
2023/08/26 09:34:25;;;;;;;7.65;3.40;;;21.70;64.70;;;;;;4930855;28;20047;-75
2023/08/26 09:36:51;;;;;;;8.48;3.60;;;21.80;64.70;;;;;;4929592;29;20032;-75
2023/08/26 09:39:17;;;;;;;7.47;3.70;;;21.90;64.20;;;;;;4943766;29;20430;-76
2023/08/26 09:41:45;;;;;;;9.35;2.90;;;22.00;63.70;;;;;;4945748;28;20799;-75
2023/08/26 09:44:12;;;;;;;7.82;3.45;;;22.20;63.30;;;;;;4928133;29;20098;-76
2023/08/26 09:46:39;;;;;;;4.43;2.85;;;22.40;62.60;;;;;;4927966;29;20117;-76
2023/08/26 09:49:05;;;;;;;5.05;2.50;;;22.50;61.80;;;;;;4926874;29;20071;-76
2023/08/26 09:51:32;;;;;;;6.97;3.05;;;22.70;60.70;;;;;;4928043;29;20126;-76
2023/08/26 09:53:59;;;;;;;5.03;2.45;;;22.70;59.80;;;;;;4912799;29;20071;-76
2023/08/26 09:56:26;;;;;;;6.88;4.10;;;22.80;59.60;;;;;;4928066;29;20382;-77
2023/08/26 09:58:53;;;;;;;6.78;3.83;;;22.90;58.60;;;;;;4911921;29;20043;-76
2023/08/26 10:01:20;;;;;;;10.55;4.55;;;23.00;58.80;;;;;;4910688;29;20690;-76
2023/08/26 10:03:51;;;;;;;4.93;3.13;;;23.10;58.10;;;;;;4928144;29;20054;-77
2023/08/26 10:06:21;;;;;;;6.28;2.90;;;23.10;57.80;;;;;;4931237;29;20517;-77
2023/08/26 10:08:53;;;;;;;6.40;2.45;;;23.30;58.90;;;;;;4932676;29;20103;-77
2023/08/26 10:11:21;;;;;;;5.63;2.42;;;23.40;58.30;;;;;;4926457;29;20075;-77
2023/08/26 10:13:50;;;;;;;7.50;3.25;;;23.60;57.90;;;;;;4939492;29;20039;-75
2023/08/26 10:16:19;;;;;;;4.85;2.50;;;23.70;57.10;;;;;;4956056;29;20081;-75
2023/08/26 10:18:54;;;;;;;5.65;1.77;;;23.80;56.80;;;;;;4940109;29;20509;-75
2023/08/26 10:21:21;;;;;;;5.28;1.80;;;23.90;55.50;;;;;;4939993;29;20118;-75
2023/08/26 10:23:50;;;;;;;7.13;2.70;;;24.00;54.20;;;;;;4927902;29;20035;-75
2023/08/26 10:26:19;;;;;;;5.25;1.70;;;24.00;52.80;;;;;;4955575;29;20541;-75
2023/08/26 10:28:47;;;;;;;4.85;2.22;;;24.10;54.20;;;;;;4923983;29;20094;-76
2023/08/26 10:31:14;;;;;;;4.38;2.42;;;24.10;54.00;;;;;;4939860;29;20043;-76
2023/08/26 10:34:01;;;;;;;5.13;2.05;;;24.20;54.10;;;;;;4939873;29;20062;-76
2023/08/26 10:36:28;;;;;;;4.32;2.00;;;24.30;54.70;;;;;;4942143;29;20045;-75
2023/08/26 10:38:56;;;;;;;5.72;2.58;;;24.20;54.50;;;;;;4938675;29;20102;-75
2023/08/26 10:41:22;;;;;;;3.45;1.80;;;24.30;53.90;;;;;;4917341;29;20042;-75
2023/08/26 10:43:52;;;;;;;4.15;2.08;;;24.30;53.00;;;;;;4923872;28;20462;-75
2023/08/26 10:46:30;;;;;;;5.82;1.95;;;24.30;53.10;;;;;;4951816;29;20119;-75
2023/08/26 10:48:56;;;;;;;4.13;2.40;;;24.30;53.30;;;;;;4939984;29;20391;-76
2023/08/26 10:51:22;;;;;;;4.85;2.30;;;24.30;53.70;;;;;;4955200;29;20047;-75
2023/08/26 10:53:51;;;;;;;5.30;2.20;;;24.20;53.50;;;;;;4950451;28;20114;-75
2023/08/26 10:56:18;;;;;;;7.65;2.50;;;24.20;53.30;;;;;;4955562;29;20486;-75
2023/08/26 10:58:48;;;;;;;4.65;2.25;;;24.20;53.40;;;;;;4939396;29;20401;-75
2023/08/26 11:01:15;;;;;;;4.30;1.63;;;24.10;53.10;;;;;;4950202;29;20155;-75
2023/08/26 11:03:45;;;;;;;5.63;2.10;;;24.10;53.30;;;;;;4928947;29;20050;-75
2023/08/26 11:06:18;;;;;;;3.63;1.60;;;24.10;52.90;;;;;;4923081;29;20043;-74
2023/08/26 11:08:55;;;;;;;2.20;1.70;;;24.00;52.70;;;;;;4955381;28;20054;-74
2023/08/26 11:11:21;;;;;;;2.83;1.75;;;23.90;52.60;;;;;;4933605;29;20114;-75
2023/08/26 11:13:47;;;;;;;3.72;1.73;;;23.80;52.50;;;;;;4934488;29;20123;-73
2023/08/26 11:16:14;;;;;;;2.72;2.20;;;23.80;52.40;;;;;;4938947;29;20510;-74
2023/08/26 11:18:41;;;;;;;3.22;2.00;;;23.70;52.30;;;;;;4907373;29;20043;-75
2023/08/26 11:21:07;;;;;;;4.80;2.17;;;23.60;52.10;;;;;;4911200;29;20056;-75
2023/08/26 11:23:33;;;;;;;4.78;2.45;;;23.60;52.60;;;;;;4923167;29;20035;-75
2023/08/26 11:25:59;;;;;;;3.53;2.30;;;23.50;53.20;;;;;;4935836;29;20039;-76
2023/08/26 11:28:27;;;;;;;3.75;2.35;;;23.50;52.90;;;;;;4938914;29;20035;-77
2023/08/26 11:30:53;;;;;;;3.90;2.55;;;23.50;52.70;;;;;;4955121;29;20062;-77
2023/08/26 11:33:21;;;;;;;4.45;3.33;;;23.50;52.60;;;;;;4939086;29;20522;-77
2023/08/26 11:35:49;;;;;;;4.22;2.90;;;23.50;52.80;;;;;;4954746;28;20039;-77
2023/08/26 11:38:16;;;;;;;3.40;2.38;;;23.60;53.00;;;;;;4939369;29;20042;-77
2023/08/26 11:40:42;;;;;;;3.63;2.83;;;23.60;53.20;;;;;;4938869;29;20110;-77
2023/08/26 11:43:09;;;;;;;5.07;2.80;;;23.60;52.20;;;;;;4937196;29;20411;-78
2023/08/26 11:45:37;;;;;;;4.30;2.53;;;23.60;52.00;;;;;;4953095;29;20043;-77
2023/08/26 11:48:03;;;;;;;4.85;2.40;;;23.60;52.10;;;;;;4954530;29;20046;-78
2023/08/26 11:50:31;;;;;;;4.85;2.38;;;23.70;52.10;;;;;;4939043;29;20043;-78
2023/08/26 11:53:00;;;;;;;3.22;2.10;;;23.70;51.90;;;;;;4939038;29;20050;-78
2023/08/26 11:55:28;;;;;;;3.75;1.95;;;23.70;51.90;;;;;;4907546;29;20043;-77
2023/08/26 11:57:57;;;;;;;4.60;2.28;;;23.80;51.20;;;;;;4916084;29;20438;-77
2023/08/26 12:00:23;;;;;;;4.28;2.55;;;23.80;50.80;;;;;;4917514;29;20039;-77
2023/08/26 12:02:51;;;;;;;3.72;2.00;;;23.90;51.10;;;;;;4900352;28;20093;-77
2023/08/26 12:05:18;;;;;;;4.60;2.30;;;23.90;50.70;;;;;;4928254;29;20035;-77
2023/08/26 12:07:49;;;;;;;2.70;1.90;;;23.90;50.90;;;;;;4932646;29;20102;-77
2023/08/26 12:10:37;;;;;;;4.30;2.10;;;24.00;51.40;;;;;;4925989;29;20494;-78
2023/08/26 12:13:04;;;;;;;2.67;2.00;;;24.00;51.50;;;;;;4916177;29;20510;-78
2023/08/26 12:15:30;;;;;;;2.55;1.60;;;24.10;50.80;;;;;;4929511;29;20138;-78
2023/08/26 12:17:57;;;;;;;3.97;1.80;;;24.20;50.70;;;;;;4921398;29;20059;-78
2023/08/26 12:20:28;;;;;;;3.28;1.48;;;24.20;50.40;;;;;;4915112;29;20036;-78
2023/08/26 12:22:59;;;;;;;3.38;2.15;;;24.20;50.20;;;;;;4917089;29;20043;-78
2023/08/26 12:25:32;;;;;;;3.30;2.13;;;24.30;50.40;;;;;;4942744;29;20047;-78
2023/08/26 12:28:17;;;;;;;3.63;1.88;;;24.40;50.70;;;;;;4945040;29;20039;-79
2023/08/26 12:30:47;;;;;;;4.93;2.15;;;24.40;50.10;;;;;;4914907;29;20047;-78
2023/08/26 12:33:14;;;;;;;2.63;1.92;;;24.40;49.70;;;;;;4931679;29;20071;-78
2023/08/26 12:35:40;;;;;;;5.25;2.60;;;24.50;50.30;;;;;;4930190;29;20058;-77
2023/08/26 12:38:06;;;;;;;3.65;2.20;;;24.50;50.90;;;;;;4928777;28;20037;-78
2023/08/26 12:40:34;;;;;;;7.80;2.58;;;24.60;51.30;;;;;;4927964;29;20046;-78
2023/08/26 12:43:02;;;;;;;2.70;1.60;;;24.60;51.40;;;;;;4915776;29;20423;-78